sensor_id;sensor_type;location;lat;lon;timestamp;pressure;altitude;pressure_sealevel;temperature;humidity
58658;BME280;44428;45.630;13.786;2023-01-28T00:02:06;101389.59;;;2.75;53.15
58658;BME280;44428;45.630;13.786;2023-01-28T00:04:32;101391.31;;;2.77;53.73
58658;BME280;44428;45.630;13.786;2023-01-28T00:06:57;101396.34;;;2.83;52.92
58658;BME280;44428;45.630;13.786;2023-01-28T00:09:23;101380.69;;;2.83;53.20
58658;BME280;44428;45.630;13.786;2023-01-28T00:11:49;101384.22;;;2.82;52.85
58658;BME280;44428;45.630;13.786;2023-01-28T00:14:14;101379.09;;;2.79;53.37
58658;BME280;44428;45.630;13.786;2023-01-28T00:16:40;101395.53;;;2.81;53.49
58658;BME280;44428;45.630;13.786;2023-01-28T00:19:06;101384.47;;;2.72;53.92
58658;BME280;44428;45.630;13.786;2023-01-28T00:21:31;101398.38;;;2.71;53.29
58658;BME280;44428;45.630;13.786;2023-01-28T00:23:57;101405.41;;;2.69;53.44
58658;BME280;44428;45.630;13.786;2023-01-28T00:26:24;101395.78;;;2.71;53.61
58658;BME280;44428;45.630;13.786;2023-01-28T00:28:50;101384.72;;;2.63;53.71
58658;BME280;44428;45.630;13.786;2023-01-28T00:31:25;101389.94;;;2.63;53.79
58658;BME280;44428;45.630;13.786;2023-01-28T00:33:53;101411.00;;;2.54;54.27
58658;BME280;44428;45.630;13.786;2023-01-28T00:36:21;101396.31;;;2.51;54.56
58658;BME280;44428;45.630;13.786;2023-01-28T00:38:51;101396.44;;;2.47;54.80
58658;BME280;44428;45.630;13.786;2023-01-28T00:41:19;101402.69;;;2.40;55.53
58658;BME280;44428;45.630;13.786;2023-01-28T00:43:50;101421.84;;;2.39;55.25
58658;BME280;44428;45.630;13.786;2023-01-28T00:46:17;101395.19;;;2.27;56.24
58658;BME280;44428;45.630;13.786;2023-01-28T00:48:44;101401.34;;;2.23;56.08
58658;BME280;44428;45.630;13.786;2023-01-28T00:51:13;101412.72;;;2.21;56.38
58658;BME280;44428;45.630;13.786;2023-01-28T00:53:39;101393.72;;;2.16;56.33
58658;BME280;44428;45.630;13.786;2023-01-28T00:56:07;101412.91;;;2.13;56.76
58658;BME280;44428;45.630;13.786;2023-01-28T00:58:33;101422.66;;;2.05;57.35
58658;BME280;44428;45.630;13.786;2023-01-28T01:01:25;101407.09;;;2.02;57.46
58658;BME280;44428;45.630;13.786;2023-01-28T01:03:52;101419.25;;;2.03;57.37
58658;BME280;44428;45.630;13.786;2023-01-28T01:06:34;101433.00;;;2.08;56.90
58658;BME280;44428;45.630;13.786;2023-01-28T01:09:01;101426.16;;;2.04;56.98
58658;BME280;44428;45.630;13.786;2023-01-28T01:11:27;101438.38;;;2.02;57.30
58658;BME280;44428;45.630;13.786;2023-01-28T01:13:54;101440.09;;;2.03;57.47
58658;BME280;44428;45.630;13.786;2023-01-28T01:16:25;101438.44;;;1.99;57.33
58658;BME280;44428;45.630;13.786;2023-01-28T01:18:52;101436.59;;;2.04;57.31
58658;BME280;44428;45.630;13.786;2023-01-28T01:21:20;101436.72;;;1.98;57.28
58658;BME280;44428;45.630;13.786;2023-01-28T01:23:46;101422.94;;;1.93;57.13
58658;BME280;44428;45.630;13.786;2023-01-28T01:26:13;101437.78;;;1.91;57.31
58658;BME280;44428;45.630;13.786;2023-01-28T01:28:39;101424.91;;;1.81;57.60
58658;BME280;44428;45.630;13.786;2023-01-28T01:31:09;101427.66;;;1.77;57.97
58658;BME280;44428;45.630;13.786;2023-01-28T01:33:35;101429.47;;;1.73;58.14
58658;BME280;44428;45.630;13.786;2023-01-28T01:36:01;101427.59;;;1.78;57.72
58658;BME280;44428;45.630;13.786;2023-01-28T01:38:28;101426.59;;;1.86;57.91
58658;BME280;44428;45.630;13.786;2023-01-28T01:40:58;101424.06;;;1.81;57.82
58658;BME280;44428;45.630;13.786;2023-01-28T01:43:51;101429.25;;;1.82;58.27
58658;BME280;44428;45.630;13.786;2023-01-28T01:46:39;101430.13;;;1.81;58.18
58658;BME280;44428;45.630;13.786;2023-01-28T01:49:19;101433.56;;;1.83;57.95
58658;BME280;44428;45.630;13.786;2023-01-28T01:51:48;101428.38;;;1.83;58.00
58658;BME280;44428;45.630;13.786;2023-01-28T01:54:16;101418.09;;;1.77;57.97
58658;BME280;44428;45.630;13.786;2023-01-28T01:56:46;101431.25;;;1.71;58.61
58658;BME280;44428;45.630;13.786;2023-01-28T01:59:17;101444.28;;;1.71;59.02
58658;BME280;44428;45.630;13.786;2023-01-28T02:01:47;101432.03;;;1.75;58.79
58658;BME280;44428;45.630;13.786;2023-01-28T02:04:23;101427.75;;;1.72;58.42
58658;BME280;44428;45.630;13.786;2023-01-28T02:06:50;101436.38;;;1.74;58.44
58658;BME280;44428;45.630;13.786;2023-01-28T02:09:29;101433.72;;;1.77;58.83
58658;BME280;44428;45.630;13.786;2023-01-28T02:12:00;101425.06;;;1.75;58.88
58658;BME280;44428;45.630;13.786;2023-01-28T02:14:28;101419.06;;;1.73;58.78
58658;BME280;44428;45.630;13.786;2023-01-28T02:16:55;101415.59;;;1.73;59.13
58658;BME280;44428;45.630;13.786;2023-01-28T02:19:25;101421.66;;;1.73;59.01
58658;BME280;44428;45.630;13.786;2023-01-28T02:24:49;101414.78;;;1.69;59.21
58658;BME280;44428;45.630;13.786;2023-01-28T02:28:08;101406.16;;;1.67;59.60
58658;BME280;44428;45.630;13.786;2023-01-28T02:30:37;101419.91;;;1.72;59.55
58658;BME280;44428;45.630;13.786;2023-01-28T02:33:28;101416.44;;;1.73;59.11
58658;BME280;44428;45.630;13.786;2023-01-28T02:38:42;101428.50;;;1.77;59.31
58658;BME280;44428;45.630;13.786;2023-01-28T02:41:16;101428.44;;;1.80;59.08
58658;BME280;44428;45.630;13.786;2023-01-28T02:43:47;101443.28;;;1.77;58.96
58658;BME280;44428;45.630;13.786;2023-01-28T02:49:06;101444.00;;;1.83;59.05
58658;BME280;44428;45.630;13.786;2023-01-28T02:57:09;101436.88;;;1.92;58.75
58658;BME280;44428;45.630;13.786;2023-01-28T02:59:48;101438.56;;;1.93;58.25
58658;BME280;44428;45.630;13.786;2023-01-28T03:02:23;101442.00;;;1.95;58.29
58658;BME280;44428;45.630;13.786;2023-01-28T03:07:26;101450.66;;;1.97;58.14
58658;BME280;44428;45.630;13.786;2023-01-28T03:09:56;101454.97;;;1.98;58.37
58658;BME280;44428;45.630;13.786;2023-01-28T03:12:25;101440.25;;;1.97;58.25
58658;BME280;44428;45.630;13.786;2023-01-28T03:15:33;101446.31;;;1.96;58.36
58658;BME280;44428;45.630;13.786;2023-01-28T03:18:37;101435.03;;;1.97;58.11
58658;BME280;44428;45.630;13.786;2023-01-28T03:21:29;101448.00;;;1.98;57.94
58658;BME280;44428;45.630;13.786;2023-01-28T03:24:31;101448.88;;;1.99;58.32
58658;BME280;44428;45.630;13.786;2023-01-28T03:30:27;101447.16;;;1.98;58.38
58658;BME280;44428;45.630;13.786;2023-01-28T03:33:23;101443.56;;;2.02;58.37
58658;BME280;44428;45.630;13.786;2023-01-28T03:36:09;101445.34;;;2.01;58.37
58658;BME280;44428;45.630;13.786;2023-01-28T03:38:54;101440.19;;;2.00;57.84
58658;BME280;44428;45.630;13.786;2023-01-28T03:41:24;101444.41;;;2.04;57.99
58658;BME280;44428;45.630;13.786;2023-01-28T03:43:52;101450.53;;;2.03;57.65
58658;BME280;44428;45.630;13.786;2023-01-28T03:46:18;101454.06;;;1.99;58.13
58658;BME280;44428;45.630;13.786;2023-01-28T03:48:44;101447.22;;;1.95;58.30
58658;BME280;44428;45.630;13.786;2023-01-28T03:51:12;101450.66;;;1.97;58.19
58658;BME280;44428;45.630;13.786;2023-01-28T03:53:38;101461.09;;;1.97;58.00
58658;BME280;44428;45.630;13.786;2023-01-28T03:56:05;101448.94;;;1.96;58.10
58658;BME280;44428;45.630;13.786;2023-01-28T03:58:31;101457.50;;;2.01;57.70
58658;BME280;44428;45.630;13.786;2023-01-28T04:01:16;101466.25;;;2.00;57.55
58658;BME280;44428;45.630;13.786;2023-01-28T04:03:42;101462.66;;;2.04;57.64
58658;BME280;44428;45.630;13.786;2023-01-28T04:06:13;101452.22;;;2.04;57.46
58658;BME280;44428;45.630;13.786;2023-01-28T04:08:57;101445.25;;;2.06;58.00
58658;BME280;44428;45.630;13.786;2023-01-28T04:11:42;101461.09;;;1.97;57.81
58658;BME280;44428;45.630;13.786;2023-01-28T04:14:11;101467.94;;;2.01;57.46
58658;BME280;44428;45.630;13.786;2023-01-28T04:16:45;101473.00;;;2.07;57.28
58658;BME280;44428;45.630;13.786;2023-01-28T04:19:11;101474.72;;;2.08;57.41
58658;BME280;44428;45.630;13.786;2023-01-28T04:21:38;101473.16;;;2.01;57.64
58658;BME280;44428;45.630;13.786;2023-01-28T04:24:05;101478.50;;;1.95;57.68
58658;BME280;44428;45.630;13.786;2023-01-28T04:26:31;101476.81;;;1.94;58.02
58658;BME280;44428;45.630;13.786;2023-01-28T04:28:57;101488.94;;;1.95;57.81
58658;BME280;44428;45.630;13.786;2023-01-28T04:31:23;101488.09;;;1.93;58.15
58658;BME280;44428;45.630;13.786;2023-01-28T04:33:58;101493.31;;;1.93;58.14
58658;BME280;44428;45.630;13.786;2023-01-28T04:36:36;101497.59;;;1.97;58.12
58658;BME280;44428;45.630;13.786;2023-01-28T04:39:22;101495.00;;;1.95;58.25
58658;BME280;44428;45.630;13.786;2023-01-28T04:42:08;101488.22;;;1.87;58.45
58658;BME280;44428;45.630;13.786;2023-01-28T04:44:53;101489.06;;;1.89;58.22
58658;BME280;44428;45.630;13.786;2023-01-28T04:47:48;101502.88;;;1.94;58.00
58658;BME280;44428;45.630;13.786;2023-01-28T04:50:33;101508.06;;;1.94;57.91
58658;BME280;44428;45.630;13.786;2023-01-28T04:53:28;101508.16;;;1.89;57.84
58658;BME280;44428;45.630;13.786;2023-01-28T04:55:59;101506.47;;;1.87;58.20
58658;BME280;44428;45.630;13.786;2023-01-28T04:58:29;101511.56;;;1.93;58.14
58658;BME280;44428;45.630;13.786;2023-01-28T05:00:59;101506.19;;;1.99;57.98
58658;BME280;44428;45.630;13.786;2023-01-28T05:03:25;101507.03;;;2.01;57.49
58658;BME280;44428;45.630;13.786;2023-01-28T05:05:51;101504.56;;;1.95;57.93
58658;BME280;44428;45.630;13.786;2023-01-28T05:08:26;101507.19;;;1.95;58.20
58658;BME280;44428;45.630;13.786;2023-01-28T05:10:52;101515.81;;;1.97;58.26
58658;BME280;44428;45.630;13.786;2023-01-28T05:13:17;101515.06;;;1.92;58.51
58658;BME280;44428;45.630;13.786;2023-01-28T05:15:49;101510.09;;;1.79;58.92
58658;BME280;44428;45.630;13.786;2023-01-28T05:18:15;101510.19;;;1.76;58.68
58658;BME280;44428;45.630;13.786;2023-01-28T05:20:46;101505.81;;;1.77;59.03
58658;BME280;44428;45.630;13.786;2023-01-28T05:23:12;101519.56;;;1.83;58.50
58658;BME280;44428;45.630;13.786;2023-01-28T05:25:48;101532.59;;;1.83;58.69
58658;BME280;44428;45.630;13.786;2023-01-28T05:28:15;101535.97;;;1.89;58.44
58658;BME280;44428;45.630;13.786;2023-01-28T05:30:40;101530.75;;;1.89;58.46
58658;BME280;44428;45.630;13.786;2023-01-28T05:33:06;101527.25;;;1.90;58.27
58658;BME280;44428;45.630;13.786;2023-01-28T05:35:32;101540.41;;;1.85;58.76
58658;BME280;44428;45.630;13.786;2023-01-28T05:37:58;101543.81;;;1.87;59.13
58658;BME280;44428;45.630;13.786;2023-01-28T05:40:25;101534.38;;;1.81;58.58
58658;BME280;44428;45.630;13.786;2023-01-28T05:42:50;101530.88;;;1.82;59.12
58658;BME280;44428;45.630;13.786;2023-01-28T05:45:31;101539.50;;;1.84;58.58
58658;BME280;44428;45.630;13.786;2023-01-28T05:48:10;101540.53;;;1.77;58.84
58658;BME280;44428;45.630;13.786;2023-01-28T05:51:05;101543.03;;;1.83;59.29
58658;BME280;44428;45.630;13.786;2023-01-28T05:53:33;101546.53;;;1.82;58.50
58658;BME280;44428;45.630;13.786;2023-01-28T05:55:59;101546.34;;;1.92;58.51
58658;BME280;44428;45.630;13.786;2023-01-28T05:58:26;101540.19;;;1.94;58.72
58658;BME280;44428;45.630;13.786;2023-01-28T06:00:55;101561.84;;;1.96;58.19
58658;BME280;44428;45.630;13.786;2023-01-28T06:03:26;101550.38;;;2.06;58.00
58658;BME280;44428;45.630;13.786;2023-01-28T06:05:52;101551.28;;;2.04;57.89
58658;BME280;44428;45.630;13.786;2023-01-28T06:08:18;101537.41;;;2.02;57.78
58658;BME280;44428;45.630;13.786;2023-01-28T06:10:45;101554.78;;;2.03;57.57
58658;BME280;44428;45.630;13.786;2023-01-28T06:13:10;101546.13;;;2.01;58.05
58658;BME280;44428;45.630;13.786;2023-01-28T06:15:55;101548.69;;;2.02;58.17
58658;BME280;44428;45.630;13.786;2023-01-28T06:18:33;101541.00;;;1.98;57.99
58658;BME280;44428;45.630;13.786;2023-01-28T06:20:59;101534.00;;;2.00;58.12
58658;BME280;44428;45.630;13.786;2023-01-28T06:23:25;101537.53;;;1.96;58.30
58658;BME280;44428;45.630;13.786;2023-01-28T06:25:54;101539.41;;;1.91;58.31
58658;BME280;44428;45.630;13.786;2023-01-28T06:28:21;101542.75;;;1.96;58.61
58658;BME280;44428;45.630;13.786;2023-01-28T06:30:51;101545.38;;;1.96;58.39
58658;BME280;44428;45.630;13.786;2023-01-28T06:33:18;101556.66;;;1.96;57.98
58658;BME280;44428;45.630;13.786;2023-01-28T06:35:44;101560.06;;;2.00;58.30
58658;BME280;44428;45.630;13.786;2023-01-28T06:38:11;101557.34;;;2.04;58.11
58658;BME280;44428;45.630;13.786;2023-01-28T06:40:36;101562.63;;;2.03;58.26
58658;BME280;44428;45.630;13.786;2023-01-28T06:43:03;101565.16;;;2.06;58.32
58658;BME280;44428;45.630;13.786;2023-01-28T06:45:28;101580.78;;;2.06;57.87
58658;BME280;44428;45.630;13.786;2023-01-28T06:47:54;101586.00;;;2.06;58.21
58658;BME280;44428;45.630;13.786;2023-01-28T06:50:20;101594.63;;;2.08;58.13
58658;BME280;44428;45.630;13.786;2023-01-28T06:52:45;101591.09;;;2.12;58.02
58658;BME280;44428;45.630;13.786;2023-01-28T06:55:11;101592.81;;;2.13;58.36
58658;BME280;44428;45.630;13.786;2023-01-28T06:57:40;101617.97;;;2.14;58.31
58658;BME280;44428;45.630;13.786;2023-01-28T07:00:08;101606.66;;;2.15;57.98
58658;BME280;44428;45.630;13.786;2023-01-28T07:02:36;101613.66;;;2.13;58.24
58658;BME280;44428;45.630;13.786;2023-01-28T07:05:02;101599.72;;;2.14;57.84
58658;BME280;44428;45.630;13.786;2023-01-28T07:07:28;101611.75;;;2.21;57.82
58658;BME280;44428;45.630;13.786;2023-01-28T07:09:53;101610.84;;;2.22;57.90
58658;BME280;44428;45.630;13.786;2023-01-28T07:12:19;101602.91;;;2.28;57.92
58658;BME280;44428;45.630;13.786;2023-01-28T07:14:45;101613.25;;;2.32;57.97
58658;BME280;44428;45.630;13.786;2023-01-28T07:17:10;101606.22;;;2.37;57.63
58658;BME280;44428;45.630;13.786;2023-01-28T07:19:36;101603.56;;;2.38;57.51
58658;BME280;44428;45.630;13.786;2023-01-28T07:22:01;101605.22;;;2.42;57.18
58658;BME280;44428;45.630;13.786;2023-01-28T07:24:28;101606.06;;;2.43;57.23
58658;BME280;44428;45.630;13.786;2023-01-28T07:26:54;101623.44;;;2.44;57.82
58658;BME280;44428;45.630;13.786;2023-01-28T07:29:20;101621.44;;;2.55;57.06
58658;BME280;44428;45.630;13.786;2023-01-28T07:31:46;101628.31;;;2.59;56.94
58658;BME280;44428;45.630;13.786;2023-01-28T07:34:12;101624.78;;;2.60;57.02
58658;BME280;44428;45.630;13.786;2023-01-28T07:36:37;101638.53;;;2.68;56.71
58658;BME280;44428;45.630;13.786;2023-01-28T07:39:03;101641.84;;;2.77;56.46
58658;BME280;44428;45.630;13.786;2023-01-28T07:41:29;101644.53;;;2.73;56.56
58658;BME280;44428;45.630;13.786;2023-01-28T07:44:03;101641.63;;;2.86;56.33
58658;BME280;44428;45.630;13.786;2023-01-28T07:46:29;101622.31;;;2.93;56.00
58658;BME280;44428;45.630;13.786;2023-01-28T07:48:54;101634.03;;;3.12;54.82
58658;BME280;44428;45.630;13.786;2023-01-28T07:51:20;101645.97;;;3.22;54.33
58658;BME280;44428;45.630;13.786;2023-01-28T07:53:45;101651.03;;;3.29;53.92
58658;BME280;44428;45.630;13.786;2023-01-28T07:56:11;101651.41;;;3.48;54.00
58658;BME280;44428;45.630;13.786;2023-01-28T07:58:37;101653.69;;;3.61;53.80
58658;BME280;44428;45.630;13.786;2023-01-28T08:01:03;101643.16;;;3.64;53.00
58658;BME280;44428;45.630;13.786;2023-01-28T08:03:29;101649.38;;;3.59;53.04
58658;BME280;44428;45.630;13.786;2023-01-28T08:05:55;101644.78;;;3.68;53.19
58658;BME280;44428;45.630;13.786;2023-01-28T08:08:22;101656.72;;;3.79;53.00
58658;BME280;44428;45.630;13.786;2023-01-28T08:10:49;101644.44;;;3.81;52.61
58658;BME280;44428;45.630;13.786;2023-01-28T08:13:16;101651.31;;;3.85;52.99
58658;BME280;44428;45.630;13.786;2023-01-28T08:15:42;101679.34;;;3.80;52.91
58658;BME280;44428;45.630;13.786;2023-01-28T08:18:09;101688.72;;;3.87;52.94
58658;BME280;44428;45.630;13.786;2023-01-28T08:20:38;101677.63;;;3.79;52.94
58658;BME280;44428;45.630;13.786;2023-01-28T08:25:38;101674.09;;;3.80;53.07
58658;BME280;44428;45.630;13.786;2023-01-28T08:28:05;101670.41;;;3.87;52.81
58658;BME280;44428;45.630;13.786;2023-01-28T08:30:31;101668.78;;;3.83;53.23
58658;BME280;44428;45.630;13.786;2023-01-28T08:32:58;101669.47;;;3.89;52.81
58658;BME280;44428;45.630;13.786;2023-01-28T08:35:25;101666.75;;;3.94;52.47
58658;BME280;44428;45.630;13.786;2023-01-28T08:37:51;101678.16;;;3.92;52.70
58658;BME280;44428;45.630;13.786;2023-01-28T08:40:17;101672.16;;;3.88;53.11
58658;BME280;44428;45.630;13.786;2023-01-28T08:42:47;101677.13;;;3.97;52.83
58658;BME280;44428;45.630;13.786;2023-01-28T08:45:13;101674.34;;;4.03;52.40
58658;BME280;44428;45.630;13.786;2023-01-28T08:47:49;101666.66;;;3.97;52.45
58658;BME280;44428;45.630;13.786;2023-01-28T08:50:16;101661.34;;;4.00;51.88
58658;BME280;44428;45.630;13.786;2023-01-28T08:52:43;101690.34;;;4.24;52.27
58658;BME280;44428;45.630;13.786;2023-01-28T08:55:10;101681.13;;;5.53;49.30
58658;BME280;44428;45.630;13.786;2023-01-28T08:57:36;101676.97;;;8.92;42.16
58658;BME280;44428;45.630;13.786;2023-01-28T09:00:03;101672.00;;;11.97;36.68
58658;BME280;44428;45.630;13.786;2023-01-28T09:02:29;101687.53;;;13.94;32.14
58658;BME280;44428;45.630;13.786;2023-01-28T09:04:55;101683.53;;;15.48;29.38
58658;BME280;44428;45.630;13.786;2023-01-28T09:07:20;101693.13;;;16.09;28.39
58658;BME280;44428;45.630;13.786;2023-01-28T09:09:46;101691.72;;;16.49;27.02
58658;BME280;44428;45.630;13.786;2023-01-28T09:12:12;101680.84;;;14.89;28.69
58658;BME280;44428;45.630;13.786;2023-01-28T09:14:37;101685.72;;;14.95;28.68
58658;BME280;44428;45.630;13.786;2023-01-28T09:17:04;101699.97;;;15.42;28.22
58658;BME280;44428;45.630;13.786;2023-01-28T09:19:29;101692.84;;;13.68;30.05
58658;BME280;44428;45.630;13.786;2023-01-28T09:21:55;101703.69;;;13.11;31.27
58658;BME280;44428;45.630;13.786;2023-01-28T09:24:21;101708.84;;;14.82;29.27
58658;BME280;44428;45.630;13.786;2023-01-28T09:26:50;101708.53;;;15.10;28.58
58658;BME280;44428;45.630;13.786;2023-01-28T09:29:15;101708.16;;;17.00;26.65
58658;BME280;44428;45.630;13.786;2023-01-28T09:31:42;101708.28;;;17.30;26.24
58658;BME280;44428;45.630;13.786;2023-01-28T09:34:08;101713.53;;;16.66;26.35
58658;BME280;44428;45.630;13.786;2023-01-28T09:36:34;101721.84;;;15.10;28.08
58658;BME280;44428;45.630;13.786;2023-01-28T09:39:01;101719.84;;;14.52;28.85
58658;BME280;44428;45.630;13.786;2023-01-28T09:44:27;101741.81;;;12.96;31.23
58658;BME280;44428;45.630;13.786;2023-01-28T09:47:01;101732.19;;;12.80;31.90
58658;BME280;44428;45.630;13.786;2023-01-28T09:49:40;101721.13;;;11.26;33.11
58658;BME280;44428;45.630;13.786;2023-01-28T09:52:12;101735.13;;;11.58;33.71
58658;BME280;44428;45.630;13.786;2023-01-28T09:54:45;101719.13;;;12.63;32.57
58658;BME280;44428;45.630;13.786;2023-01-28T09:57:23;101709.78;;;12.99;31.34
58658;BME280;44428;45.630;13.786;2023-01-28T09:59:49;101704.00;;;13.34;31.06
58658;BME280;44428;45.630;13.786;2023-01-28T10:13:52;101686.66;;;12.59;31.41
58658;BME280;44428;45.630;13.786;2023-01-28T10:16:54;101670.13;;;11.38;33.70
58658;BME280;44428;45.630;13.786;2023-01-28T10:19:29;101660.16;;;11.58;33.69
58658;BME280;44428;45.630;13.786;2023-01-28T10:22:24;101667.31;;;11.41;33.95
58658;BME280;44428;45.630;13.786;2023-01-28T10:24:56;101646.00;;;13.27;31.20
58658;BME280;44428;45.630;13.786;2023-01-28T10:27:32;101646.28;;;15.00;29.03
58658;BME280;44428;45.630;13.786;2023-01-28T10:29:59;101640.47;;;16.67;26.50
58658;BME280;44428;45.630;13.786;2023-01-28T10:32:42;101646.69;;;17.64;25.43
58658;BME280;44428;45.630;13.786;2023-01-28T10:35:10;101642.72;;;18.00;24.83
58658;BME280;44428;45.630;13.786;2023-01-28T10:37:37;101666.31;;;17.95;24.54
58658;BME280;44428;45.630;13.786;2023-01-28T10:40:04;101655.69;;;18.76;23.88
58658;BME280;44428;45.630;13.786;2023-01-28T10:42:35;101652.00;;;18.87;23.67
58658;BME280;44428;45.630;13.786;2023-01-28T10:45:22;101651.97;;;18.67;23.58
58658;BME280;44428;45.630;13.786;2023-01-28T10:48:02;101651.78;;;17.67;24.49
58658;BME280;44428;45.630;13.786;2023-01-28T10:50:31;101629.03;;;16.99;25.21
58658;BME280;44428;45.630;13.786;2023-01-28T10:52:58;101635.75;;;15.23;27.34
58658;BME280;44428;45.630;13.786;2023-01-28T10:55:46;101634.97;;;14.61;28.38
58658;BME280;44428;45.630;13.786;2023-01-28T10:58:18;101623.91;;;14.42;28.67
58658;BME280;44428;45.630;13.786;2023-01-28T11:00:45;101643.97;;;13.84;29.42
58658;BME280;44428;45.630;13.786;2023-01-28T11:03:17;101643.03;;;11.94;32.03
58658;BME280;44428;45.630;13.786;2023-01-28T11:05:50;101636.44;;;10.80;34.18
58658;BME280;44428;45.630;13.786;2023-01-28T11:08:17;101664.28;;;10.05;35.87
58658;BME280;44428;45.630;13.786;2023-01-28T11:10:44;101657.88;;;9.58;36.95
58658;BME280;44428;45.630;13.786;2023-01-28T11:13:19;101646.44;;;9.59;36.89
58658;BME280;44428;45.630;13.786;2023-01-28T11:16:02;101640.66;;;9.34;37.33
58658;BME280;44428;45.630;13.786;2023-01-28T11:18:31;101658.31;;;8.97;38.09
58658;BME280;44428;45.630;13.786;2023-01-28T11:21:00;101678.59;;;8.95;38.47
58658;BME280;44428;45.630;13.786;2023-01-28T11:23:33;101666.06;;;9.00;38.60
58658;BME280;44428;45.630;13.786;2023-01-28T11:26:06;101661.19;;;8.74;39.07
58658;BME280;44428;45.630;13.786;2023-01-28T11:28:34;101676.00;;;8.57;39.57
58658;BME280;44428;45.630;13.786;2023-01-28T11:31:04;101657.16;;;8.08;40.45
58658;BME280;44428;45.630;13.786;2023-01-28T11:33:38;101658.34;;;7.80;40.66
58658;BME280;44428;45.630;13.786;2023-01-28T11:38:56;101674.13;;;7.80;41.04
58658;BME280;44428;45.630;13.786;2023-01-28T11:41:32;101673.09;;;7.64;41.04
58658;BME280;44428;45.630;13.786;2023-01-28T11:44:04;101670.88;;;7.75;41.19
58658;BME280;44428;45.630;13.786;2023-01-28T11:47:12;101661.63;;;7.86;41.06
58658;BME280;44428;45.630;13.786;2023-01-28T11:53:21;101657.31;;;7.64;40.78
58658;BME280;44428;45.630;13.786;2023-01-28T12:01:15;101661.72;;;8.23;39.60
58658;BME280;44428;45.630;13.786;2023-01-28T12:28:21;101645.06;;;7.43;42.28
58658;BME280;44428;45.630;13.786;2023-01-28T12:34:04;101622.41;;;8.00;41.04
58658;BME280;44428;45.630;13.786;2023-01-28T12:39:57;101621.59;;;8.18;40.67
58658;BME280;44428;45.630;13.786;2023-01-28T12:45:16;101625.78;;;7.83;41.02
58658;BME280;44428;45.630;13.786;2023-01-28T12:47:50;101637.59;;;8.33;40.73
58658;BME280;44428;45.630;13.786;2023-01-28T12:50:26;101637.19;;;10.01;37.78
58658;BME280;44428;45.630;13.786;2023-01-28T12:53:05;101624.00;;;10.50;35.98
58658;BME280;44428;45.630;13.786;2023-01-28T12:55:42;101642.78;;;9.95;36.71
58658;BME280;44428;45.630;13.786;2023-01-28T12:58:18;101625.06;;;9.47;37.65
58658;BME280;44428;45.630;13.786;2023-01-28T13:00:49;101635.53;;;8.96;38.56
58658;BME280;44428;45.630;13.786;2023-01-28T13:06:25;101651.06;;;8.26;39.96
58658;BME280;44428;45.630;13.786;2023-01-28T13:08:55;101636.53;;;8.37;40.13
58658;BME280;44428;45.630;13.786;2023-01-28T13:11:31;101648.34;;;8.85;39.41
58658;BME280;44428;45.630;13.786;2023-01-28T13:13:58;101647.41;;;8.68;39.93
58658;BME280;44428;45.630;13.786;2023-01-28T13:16:24;101653.84;;;8.61;39.64
58658;BME280;44428;45.630;13.786;2023-01-28T13:18:49;101638.63;;;9.74;37.82
58658;BME280;44428;45.630;13.786;2023-01-28T13:31:45;101668.69;;;11.33;34.18
58658;BME280;44428;45.630;13.786;2023-01-28T13:36:52;101670.66;;;11.89;33.24
58658;BME280;44428;45.630;13.786;2023-01-28T13:39:21;101689.22;;;12.32;32.49
58658;BME280;44428;45.630;13.786;2023-01-28T13:42:09;101677.88;;;10.64;35.32
58658;BME280;44428;45.630;13.786;2023-01-28T13:44:36;101700.41;;;9.52;37.42
58658;BME280;44428;45.630;13.786;2023-01-28T13:49:40;101692.53;;;8.21;40.20
58658;BME280;44428;45.630;13.786;2023-01-28T13:54:40;101700.84;;;7.07;42.55
58658;BME280;44428;45.630;13.786;2023-01-28T14:00:17;101699.19;;;6.82;43.52
58658;BME280;44428;45.630;13.786;2023-01-28T14:11:21;101707.88;;;6.37;44.87
58658;BME280;44428;45.630;13.786;2023-01-28T14:14:10;101713.44;;;6.30;45.01
58658;BME280;44428;45.630;13.786;2023-01-28T14:16:57;101722.72;;;6.15;45.00
58658;BME280;44428;45.630;13.786;2023-01-28T14:19:31;101736.06;;;6.09;45.16
58658;BME280;44428;45.630;13.786;2023-01-28T14:21:58;101734.53;;;6.02;45.62
58658;BME280;44428;45.630;13.786;2023-01-28T14:24:24;101744.75;;;5.84;45.92
58658;BME280;44428;45.630;13.786;2023-01-28T14:29:32;101741.72;;;5.70;46.68
58658;BME280;44428;45.630;13.786;2023-01-28T14:32:25;101747.25;;;5.61;46.98
58658;BME280;44428;45.630;13.786;2023-01-28T14:34:52;101752.91;;;5.48;47.27
58658;BME280;44428;45.630;13.786;2023-01-28T14:37:20;101763.50;;;5.45;47.73
58658;BME280;44428;45.630;13.786;2023-01-28T14:39:52;101758.56;;;5.36;48.05
58658;BME280;44428;45.630;13.786;2023-01-28T14:42:25;101763.78;;;5.36;47.83
58658;BME280;44428;45.630;13.786;2023-01-28T14:58:44;101764.66;;;5.09;48.57
58658;BME280;44428;45.630;13.786;2023-01-28T15:01:26;101771.88;;;5.00;49.07
58658;BME280;44428;45.630;13.786;2023-01-28T15:03:53;101761.50;;;4.97;48.98
58658;BME280;44428;45.630;13.786;2023-01-28T15:06:24;101761.69;;;4.91;49.04
58658;BME280;44428;45.630;13.786;2023-01-28T15:09:05;101766.94;;;4.90;49.69
58658;BME280;44428;45.630;13.786;2023-01-28T15:11:32;101780.91;;;4.90;49.36
58658;BME280;44428;45.630;13.786;2023-01-28T15:13:58;101772.50;;;4.79;49.41
58658;BME280;44428;45.630;13.786;2023-01-28T15:16:27;101763.84;;;4.77;49.31
58658;BME280;44428;45.630;13.786;2023-01-28T15:18:55;101765.63;;;4.75;49.73
58658;BME280;44428;45.630;13.786;2023-01-28T15:21:23;101765.63;;;4.75;49.62